Airfield :
LOGIN :

Register | Disclaimer

   EN    FR    IT 

 










Legend :    VFR   Marginal VFR   IFR   Intensive IFR   Very Intensive IFR
Visi :
Ceiling :
>= 8 km
>= 3000ft
5 to 8 km
1000 to 3000 ft
1500m to 5 km
500 to 1000 ft
800 to 1500m
200 to 500 ft
< 800m
< 200 ft
Symbols :   Thunderstorms  Fog  Heavy snow  Heavy precipitations  Wind > 20 kt
SIGMETs :     Misc.  Thunderstorms  Icing  Turbulence  Mountain Waves  Volcanic Ashes






- Airport Elevation : 1487 ft
- IATA code : MUC


EDDM - München Franz Josef Strauss

CURRENT METAR :
  • 212250Z 14003KT 5000 -SN BR OVC004 M03/M04 Q1036 TEMPO 4000

EXPIRED METARs :
  • 212220Z 12004KT 080V160 5000 BR OVC004 M03/M04 Q1036 TEMPO 4000
  • 212150Z 13004KT 070V190 6000 OVC005 M03/M04 Q1036 TEMPO 4000 BR OVC004
  • 212120Z 13004KT 090V170 7000 OVC006 M02/M04 Q1037 TEMPO 4000 BR OVC004
  • 212050Z 13003KT 090V160 7000 OVC006 M02/M04 Q1037 NOSIG

TAF COR TAF EDDM
Valid from the 21 at 18:00 until the 23 at 00:00 UTC


211757Z 2118/2224 VRB03KT 9000 BKN010
BECMG 2118/2120 BKN008
TEMPO 2123/2207 4000 BR BKN004
BECMG 2209/2211 BKN010
BECMG 2214/2216 FEW012
BECMG 2220/2222 2500 BCFG



MET'MAP, your aeronautical weather chart ! - Copyright ORBIFLY December 2007 - Disclaimer

ORBIFLY MET'MAP TEAM :

Programming & Development : Alexandra Zaïnal
Concept & original design : Baudouin d'Aumeries
Assistance for programming : Marc-Olivier Méhu
Technical & hardware support : Manuel Goepfert

Contact : metmap@orbifly.com




SOURCES & CREDITS :

   NOAA